sensor_id;sensor_type;location;lat;lon;timestamp;temperature;humidity
31799;DHT22;18374;51.136;3.502;2023-08-01T00:00:54;15.90;99.90
31799;DHT22;18374;51.136;3.502;2023-08-01T00:03:23;15.80;99.90
31799;DHT22;18374;51.136;3.502;2023-08-01T00:05:51;15.90;99.90
31799;DHT22;18374;51.136;3.502;2023-08-01T00:08:19;15.80;99.90
31799;DHT22;18374;51.136;3.502;2023-08-01T00:10:46;15.80;99.90
31799;DHT22;18374;51.136;3.502;2023-08-01T00:13:14;15.80;99.90
31799;DHT22;18374;51.136;3.502;2023-08-01T00:15:42;15.80;99.90
31799;DHT22;18374;51.136;3.502;2023-08-01T00:18:27;15.80;99.90
31799;DHT22;18374;51.136;3.502;2023-08-01T00:20:55;15.80;99.90
31799;DHT22;18374;51.136;3.502;2023-08-01T00:23:23;15.80;99.90
31799;DHT22;18374;51.136;3.502;2023-08-01T00:25:50;15.70;99.90
31799;DHT22;18374;51.136;3.502;2023-08-01T00:28:19;15.70;99.90
31799;DHT22;18374;51.136;3.502;2023-08-01T00:30:47;15.70;99.90
31799;DHT22;18374;51.136;3.502;2023-08-01T00:33:14;15.70;99.90
31799;DHT22;18374;51.136;3.502;2023-08-01T00:35:42;15.70;99.90
31799;DHT22;18374;51.136;3.502;2023-08-01T00:38:10;15.70;99.90
31799;DHT22;18374;51.136;3.502;2023-08-01T00:40:38;15.70;99.90
31799;DHT22;18374;51.136;3.502;2023-08-01T00:43:06;15.70;99.90
31799;DHT22;18374;51.136;3.502;2023-08-01T00:45:33;15.70;99.90
31799;DHT22;18374;51.136;3.502;2023-08-01T00:48:01;15.80;99.90
31799;DHT22;18374;51.136;3.502;2023-08-01T00:50:29;15.70;99.90
31799;DHT22;18374;51.136;3.502;2023-08-01T00:52:57;15.70;99.90
31799;DHT22;18374;51.136;3.502;2023-08-01T00:55:27;15.70;99.90
31799;DHT22;18374;51.136;3.502;2023-08-01T00:57:55;15.70;99.90
31799;DHT22;18374;51.136;3.502;2023-08-01T01:00:23;15.70;99.90
31799;DHT22;18374;51.136;3.502;2023-08-01T01:02:51;15.70;99.90
31799;DHT22;18374;51.136;3.502;2023-08-01T01:05:20;15.70;99.90
31799;DHT22;18374;51.136;3.502;2023-08-01T01:07:48;15.70;99.90
31799;DHT22;18374;51.136;3.502;2023-08-01T01:10:17;15.80;99.90
31799;DHT22;18374;51.136;3.502;2023-08-01T01:12:45;15.70;99.90
31799;DHT22;18374;51.136;3.502;2023-08-01T01:15:16;15.70;99.90
31799;DHT22;18374;51.136;3.502;2023-08-01T01:17:43;15.70;99.90
31799;DHT22;18374;51.136;3.502;2023-08-01T01:20:11;15.70;99.90
31799;DHT22;18374;51.136;3.502;2023-08-01T01:22:40;15.70;99.90
31799;DHT22;18374;51.136;3.502;2023-08-01T01:25:10;15.70;99.90
31799;DHT22;18374;51.136;3.502;2023-08-01T01:27:38;15.70;99.90
31799;DHT22;18374;51.136;3.502;2023-08-01T01:30:07;15.70;99.90
31799;DHT22;18374;51.136;3.502;2023-08-01T01:32:35;15.70;99.90
31799;DHT22;18374;51.136;3.502;2023-08-01T01:35:04;15.70;99.90
31799;DHT22;18374;51.136;3.502;2023-08-01T01:37:32;15.70;99.90
31799;DHT22;18374;51.136;3.502;2023-08-01T01:39:59;15.70;99.90
31799;DHT22;18374;51.136;3.502;2023-08-01T01:42:27;15.70;99.90
31799;DHT22;18374;51.136;3.502;2023-08-01T01:44:55;15.70;99.90
31799;DHT22;18374;51.136;3.502;2023-08-01T01:47:23;15.70;99.90
31799;DHT22;18374;51.136;3.502;2023-08-01T01:49:51;15.80;99.90
31799;DHT22;18374;51.136;3.502;2023-08-01T01:52:18;15.70;99.90
31799;DHT22;18374;51.136;3.502;2023-08-01T01:54:46;15.70;99.90
31799;DHT22;18374;51.136;3.502;2023-08-01T01:57:14;15.70;99.90
31799;DHT22;18374;51.136;3.502;2023-08-01T01:59:42;15.70;99.90
31799;DHT22;18374;51.136;3.502;2023-08-01T02:02:10;15.70;99.90
31799;DHT22;18374;51.136;3.502;2023-08-01T02:04:37;15.70;99.90
31799;DHT22;18374;51.136;3.502;2023-08-01T02:07:05;15.70;99.90
31799;DHT22;18374;51.136;3.502;2023-08-01T02:09:33;15.70;99.90
31799;DHT22;18374;51.136;3.502;2023-08-01T02:12:01;15.70;99.90
31799;DHT22;18374;51.136;3.502;2023-08-01T02:14:31;15.70;99.90
31799;DHT22;18374;51.136;3.502;2023-08-01T02:16:59;15.70;99.90
31799;DHT22;18374;51.136;3.502;2023-08-01T02:19:27;15.70;99.90
31799;DHT22;18374;51.136;3.502;2023-08-01T02:21:55;15.70;99.90
31799;DHT22;18374;51.136;3.502;2023-08-01T02:24:22;15.70;99.90
31799;DHT22;18374;51.136;3.502;2023-08-01T02:26:50;15.70;99.90
31799;DHT22;18374;51.136;3.502;2023-08-01T02:29:18;15.70;99.90
31799;DHT22;18374;51.136;3.502;2023-08-01T02:31:46;15.70;99.90
31799;DHT22;18374;51.136;3.502;2023-08-01T02:34:14;15.70;99.90
31799;DHT22;18374;51.136;3.502;2023-08-01T02:36:41;15.70;99.90
31799;DHT22;18374;51.136;3.502;2023-08-01T02:39:09;15.70;99.90
31799;DHT22;18374;51.136;3.502;2023-08-01T02:41:37;15.70;99.90
31799;DHT22;18374;51.136;3.502;2023-08-01T02:44:04;15.70;99.90
31799;DHT22;18374;51.136;3.502;2023-08-01T02:46:32;15.70;99.90
31799;DHT22;18374;51.136;3.502;2023-08-01T02:49:00;15.70;99.90
31799;DHT22;18374;51.136;3.502;2023-08-01T02:51:28;15.70;99.90
31799;DHT22;18374;51.136;3.502;2023-08-01T02:53:55;15.70;99.90
31799;DHT22;18374;51.136;3.502;2023-08-01T02:56:23;15.70;99.90
31799;DHT22;18374;51.136;3.502;2023-08-01T02:58:51;15.70;99.90
31799;DHT22;18374;51.136;3.502;2023-08-01T03:01:19;15.70;99.90
31799;DHT22;18374;51.136;3.502;2023-08-01T03:03:47;15.70;99.90
31799;DHT22;18374;51.136;3.502;2023-08-01T03:06:14;15.70;99.90
31799;DHT22;18374;51.136;3.502;2023-08-01T03:08:43;15.70;99.90
31799;DHT22;18374;51.136;3.502;2023-08-01T03:11:11;15.70;99.90
31799;DHT22;18374;51.136;3.502;2023-08-01T03:13:39;15.70;99.90
31799;DHT22;18374;51.136;3.502;2023-08-01T03:16:06;15.70;99.90
31799;DHT22;18374;51.136;3.502;2023-08-01T03:18:34;15.70;99.90
31799;DHT22;18374;51.136;3.502;2023-08-01T03:21:02;15.70;99.90
31799;DHT22;18374;51.136;3.502;2023-08-01T03:23:31;15.70;99.90
31799;DHT22;18374;51.136;3.502;2023-08-01T03:25:58;15.70;99.90
31799;DHT22;18374;51.136;3.502;2023-08-01T03:28:26;15.70;99.90
31799;DHT22;18374;51.136;3.502;2023-08-01T03:30:54;15.70;99.90
31799;DHT22;18374;51.136;3.502;2023-08-01T03:33:22;15.70;99.90
31799;DHT22;18374;51.136;3.502;2023-08-01T03:35:50;15.60;99.90
31799;DHT22;18374;51.136;3.502;2023-08-01T03:38:18;15.70;99.90
31799;DHT22;18374;51.136;3.502;2023-08-01T03:40:46;15.60;99.90
31799;DHT22;18374;51.136;3.502;2023-08-01T03:43:14;15.60;99.90
31799;DHT22;18374;51.136;3.502;2023-08-01T03:45:41;15.60;99.90
31799;DHT22;18374;51.136;3.502;2023-08-01T03:48:09;15.60;99.90
31799;DHT22;18374;51.136;3.502;2023-08-01T03:50:37;15.60;99.90
31799;DHT22;18374;51.136;3.502;2023-08-01T03:53:04;15.60;99.90
31799;DHT22;18374;51.136;3.502;2023-08-01T03:55:33;15.60;99.90
31799;DHT22;18374;51.136;3.502;2023-08-01T03:58:01;15.60;99.90
31799;DHT22;18374;51.136;3.502;2023-08-01T04:00:31;15.60;99.90
31799;DHT22;18374;51.136;3.502;2023-08-01T04:03:02;15.60;99.90
31799;DHT22;18374;51.136;3.502;2023-08-01T04:05:30;15.60;99.90
31799;DHT22;18374;51.136;3.502;2023-08-01T04:07:58;15.60;99.90
31799;DHT22;18374;51.136;3.502;2023-08-01T04:10:26;15.60;99.90
31799;DHT22;18374;51.136;3.502;2023-08-01T04:12:54;15.60;99.90
31799;DHT22;18374;51.136;3.502;2023-08-01T04:15:22;15.60;99.90
31799;DHT22;18374;51.136;3.502;2023-08-01T04:17:49;15.60;99.90
31799;DHT22;18374;51.136;3.502;2023-08-01T04:20:17;15.60;99.90
31799;DHT22;18374;51.136;3.502;2023-08-01T04:22:45;15.70;99.90
31799;DHT22;18374;51.136;3.502;2023-08-01T04:25:12;15.70;99.90
31799;DHT22;18374;51.136;3.502;2023-08-01T04:30:08;15.70;99.90
31799;DHT22;18374;51.136;3.502;2023-08-01T04:32:36;15.70;99.90
31799;DHT22;18374;51.136;3.502;2023-08-01T04:37:32;15.60;99.90
31799;DHT22;18374;51.136;3.502;2023-08-01T04:42:29;15.60;99.90
31799;DHT22;18374;51.136;3.502;2023-08-01T04:44:57;15.60;99.90
31799;DHT22;18374;51.136;3.502;2023-08-01T04:49:53;15.60;99.90
31799;DHT22;18374;51.136;3.502;2023-08-01T04:52:21;15.60;99.90
31799;DHT22;18374;51.136;3.502;2023-08-01T04:54:48;15.60;99.90
31799;DHT22;18374;51.136;3.502;2023-08-01T04:57:16;15.60;99.90
31799;DHT22;18374;51.136;3.502;2023-08-01T04:59:44;15.60;99.90
31799;DHT22;18374;51.136;3.502;2023-08-01T05:02:11;15.60;99.90
31799;DHT22;18374;51.136;3.502;2023-08-01T05:04:39;15.60;99.90
31799;DHT22;18374;51.136;3.502;2023-08-01T05:07:07;15.60;99.90
31799;DHT22;18374;51.136;3.502;2023-08-01T05:09:34;15.60;99.90
31799;DHT22;18374;51.136;3.502;2023-08-01T05:12:02;15.60;99.90
31799;DHT22;18374;51.136;3.502;2023-08-01T05:14:30;15.60;99.90
31799;DHT22;18374;51.136;3.502;2023-08-01T05:16:58;15.50;99.90
31799;DHT22;18374;51.136;3.502;2023-08-01T05:19:25;15.60;99.90
31799;DHT22;18374;51.136;3.502;2023-08-01T05:21:53;15.60;99.90
31799;DHT22;18374;51.136;3.502;2023-08-01T05:24:22;15.60;99.90
31799;DHT22;18374;51.136;3.502;2023-08-01T05:26:50;15.60;99.90
31799;DHT22;18374;51.136;3.502;2023-08-01T05:29:18;15.60;99.90
31799;DHT22;18374;51.136;3.502;2023-08-01T05:31:45;15.60;99.90
31799;DHT22;18374;51.136;3.502;2023-08-01T05:34:13;15.70;99.90
31799;DHT22;18374;51.136;3.502;2023-08-01T05:36:41;15.70;99.90
31799;DHT22;18374;51.136;3.502;2023-08-01T05:39:09;15.70;99.90
31799;DHT22;18374;51.136;3.502;2023-08-01T05:41:37;15.70;99.90
31799;DHT22;18374;51.136;3.502;2023-08-01T05:44:05;15.70;99.90
31799;DHT22;18374;51.136;3.502;2023-08-01T05:46:32;15.70;99.90
31799;DHT22;18374;51.136;3.502;2023-08-01T05:49:00;15.70;99.90
31799;DHT22;18374;51.136;3.502;2023-08-01T05:51:28;15.70;99.90
31799;DHT22;18374;51.136;3.502;2023-08-01T05:53:56;15.70;99.90
31799;DHT22;18374;51.136;3.502;2023-08-01T05:56:23;15.70;99.90
31799;DHT22;18374;51.136;3.502;2023-08-01T05:58:51;15.70;99.90
31799;DHT22;18374;51.136;3.502;2023-08-01T06:01:19;15.70;99.90
31799;DHT22;18374;51.136;3.502;2023-08-01T06:03:47;15.80;99.90
31799;DHT22;18374;51.136;3.502;2023-08-01T06:06:15;15.80;99.90
31799;DHT22;18374;51.136;3.502;2023-08-01T06:08:44;15.90;99.90
31799;DHT22;18374;51.136;3.502;2023-08-01T06:11:11;15.90;99.90
31799;DHT22;18374;51.136;3.502;2023-08-01T06:13:39;15.90;99.90
31799;DHT22;18374;51.136;3.502;2023-08-01T06:16:07;15.90;99.90
31799;DHT22;18374;51.136;3.502;2023-08-01T06:18:34;15.90;99.90
31799;DHT22;18374;51.136;3.502;2023-08-01T06:21:02;16.00;99.90
31799;DHT22;18374;51.136;3.502;2023-08-01T06:23:30;16.00;99.90
31799;DHT22;18374;51.136;3.502;2023-08-01T06:25:57;16.10;99.90
31799;DHT22;18374;51.136;3.502;2023-08-01T06:28:25;16.10;99.90
31799;DHT22;18374;51.136;3.502;2023-08-01T06:30:53;16.10;99.90
31799;DHT22;18374;51.136;3.502;2023-08-01T06:33:21;16.20;99.90
31799;DHT22;18374;51.136;3.502;2023-08-01T06:35:49;16.30;99.90
31799;DHT22;18374;51.136;3.502;2023-08-01T06:38:17;16.50;99.90
31799;DHT22;18374;51.136;3.502;2023-08-01T06:40:44;16.60;99.90
31799;DHT22;18374;51.136;3.502;2023-08-01T06:43:12;16.60;99.90
31799;DHT22;18374;51.136;3.502;2023-08-01T06:45:40;16.70;99.90
31799;DHT22;18374;51.136;3.502;2023-08-01T06:48:07;16.80;99.90
31799;DHT22;18374;51.136;3.502;2023-08-01T06:50:36;16.90;99.90
31799;DHT22;18374;51.136;3.502;2023-08-01T06:53:03;16.90;99.90
31799;DHT22;18374;51.136;3.502;2023-08-01T06:55:31;17.10;99.90
31799;DHT22;18374;51.136;3.502;2023-08-01T06:57:59;17.20;99.90
31799;DHT22;18374;51.136;3.502;2023-08-01T07:00:26;17.30;99.90
31799;DHT22;18374;51.136;3.502;2023-08-01T07:02:54;17.40;99.90
31799;DHT22;18374;51.136;3.502;2023-08-01T07:05:22;17.40;99.90
31799;DHT22;18374;51.136;3.502;2023-08-01T07:07:50;17.40;99.90
31799;DHT22;18374;51.136;3.502;2023-08-01T07:10:19;17.40;99.90
31799;DHT22;18374;51.136;3.502;2023-08-01T07:12:47;17.40;99.90
31799;DHT22;18374;51.136;3.502;2023-08-01T07:15:15;17.50;99.90
31799;DHT22;18374;51.136;3.502;2023-08-01T07:17:43;17.50;99.90
31799;DHT22;18374;51.136;3.502;2023-08-01T07:20:11;17.60;99.90
31799;DHT22;18374;51.136;3.502;2023-08-01T07:22:39;17.60;99.90
31799;DHT22;18374;51.136;3.502;2023-08-01T07:25:06;17.50;99.90
31799;DHT22;18374;51.136;3.502;2023-08-01T07:27:37;17.60;99.90
31799;DHT22;18374;51.136;3.502;2023-08-01T07:30:05;17.70;99.90
31799;DHT22;18374;51.136;3.502;2023-08-01T07:32:34;17.60;99.90
31799;DHT22;18374;51.136;3.502;2023-08-01T07:35:06;17.60;99.90
31799;DHT22;18374;51.136;3.502;2023-08-01T07:37:34;17.70;99.90
31799;DHT22;18374;51.136;3.502;2023-08-01T07:40:01;17.70;99.90
31799;DHT22;18374;51.136;3.502;2023-08-01T07:42:29;17.60;99.90
31799;DHT22;18374;51.136;3.502;2023-08-01T07:44:57;17.60;99.90
31799;DHT22;18374;51.136;3.502;2023-08-01T07:47:25;17.60;99.90
31799;DHT22;18374;51.136;3.502;2023-08-01T07:49:53;17.80;99.90
31799;DHT22;18374;51.136;3.502;2023-08-01T07:52:20;17.90;99.90
31799;DHT22;18374;51.136;3.502;2023-08-01T07:54:48;18.10;99.90
31799;DHT22;18374;51.136;3.502;2023-08-01T07:57:16;18.20;99.90
31799;DHT22;18374;51.136;3.502;2023-08-01T07:59:43;18.30;99.90
31799;DHT22;18374;51.136;3.502;2023-08-01T08:02:11;18.30;99.90
31799;DHT22;18374;51.136;3.502;2023-08-01T08:04:39;18.20;99.90
31799;DHT22;18374;51.136;3.502;2023-08-01T08:07:07;18.30;99.90
31799;DHT22;18374;51.136;3.502;2023-08-01T08:09:34;18.30;99.90
31799;DHT22;18374;51.136;3.502;2023-08-01T08:12:02;18.20;99.90
31799;DHT22;18374;51.136;3.502;2023-08-01T08:14:30;18.10;99.90
31799;DHT22;18374;51.136;3.502;2023-08-01T08:16:58;18.00;99.90
31799;DHT22;18374;51.136;3.502;2023-08-01T08:19:25;17.90;99.90
31799;DHT22;18374;51.136;3.502;2023-08-01T08:21:53;17.80;99.90
31799;DHT22;18374;51.136;3.502;2023-08-01T08:24:21;17.90;99.90
31799;DHT22;18374;51.136;3.502;2023-08-01T08:26:48;18.10;99.90
31799;DHT22;18374;51.136;3.502;2023-08-01T08:29:16;18.30;99.90
31799;DHT22;18374;51.136;3.502;2023-08-01T08:31:44;18.40;99.90
31799;DHT22;18374;51.136;3.502;2023-08-01T08:34:12;18.50;99.90
31799;DHT22;18374;51.136;3.502;2023-08-01T08:36:39;18.70;99.90
31799;DHT22;18374;51.136;3.502;2023-08-01T08:39:08;18.80;99.90
31799;DHT22;18374;51.136;3.502;2023-08-01T08:41:39;18.70;99.90
31799;DHT22;18374;51.136;3.502;2023-08-01T08:44:15;18.30;99.90
31799;DHT22;18374;51.136;3.502;2023-08-01T08:46:53;18.00;99.90
31799;DHT22;18374;51.136;3.502;2023-08-01T08:49:21;17.70;99.90
31799;DHT22;18374;51.136;3.502;2023-08-01T08:51:50;17.60;99.90
31799;DHT22;18374;51.136;3.502;2023-08-01T08:54:18;17.30;99.90
31799;DHT22;18374;51.136;3.502;2023-08-01T08:56:47;17.10;99.90
31799;DHT22;18374;51.136;3.502;2023-08-01T08:59:15;16.90;99.90
31799;DHT22;18374;51.136;3.502;2023-08-01T09:01:44;17.10;99.90
31799;DHT22;18374;51.136;3.502;2023-08-01T09:04:12;17.50;99.90
31799;DHT22;18374;51.136;3.502;2023-08-01T09:06:45;18.00;99.90
31799;DHT22;18374;51.136;3.502;2023-08-01T09:09:17;18.40;99.90
31799;DHT22;18374;51.136;3.502;2023-08-01T09:11:48;18.60;99.90
31799;DHT22;18374;51.136;3.502;2023-08-01T09:14:18;18.70;99.90
31799;DHT22;18374;51.136;3.502;2023-08-01T09:16:46;18.90;99.90
31799;DHT22;18374;51.136;3.502;2023-08-01T09:19:20;19.10;99.90
31799;DHT22;18374;51.136;3.502;2023-08-01T09:21:49;19.00;99.90
31799;DHT22;18374;51.136;3.502;2023-08-01T09:24:19;19.00;99.90
31799;DHT22;18374;51.136;3.502;2023-08-01T09:26:49;18.80;99.90
31799;DHT22;18374;51.136;3.502;2023-08-01T09:29:17;18.70;99.90
31799;DHT22;18374;51.136;3.502;2023-08-01T09:31:45;18.60;99.90
31799;DHT22;18374;51.136;3.502;2023-08-01T09:34:22;18.60;99.90
31799;DHT22;18374;51.136;3.502;2023-08-01T09:36:56;18.70;99.90
31799;DHT22;18374;51.136;3.502;2023-08-01T09:39:25;18.60;99.90
31799;DHT22;18374;51.136;3.502;2023-08-01T09:42:01;18.50;99.90
31799;DHT22;18374;51.136;3.502;2023-08-01T09:44:30;18.50;99.90
31799;DHT22;18374;51.136;3.502;2023-08-01T09:47:02;18.60;99.90
31799;DHT22;18374;51.136;3.502;2023-08-01T09:49:31;18.80;99.90
31799;DHT22;18374;51.136;3.502;2023-08-01T09:51:59;19.10;99.90
31799;DHT22;18374;51.136;3.502;2023-08-01T09:54:29;19.10;99.90
31799;DHT22;18374;51.136;3.502;2023-08-01T09:56:57;18.90;99.90
31799;DHT22;18374;51.136;3.502;2023-08-01T09:59:26;18.90;99.90
31799;DHT22;18374;51.136;3.502;2023-08-01T10:01:54;18.90;99.90
31799;DHT22;18374;51.136;3.502;2023-08-01T10:04:32;19.00;99.90
31799;DHT22;18374;51.136;3.502;2023-08-01T10:07:11;19.40;99.90
31799;DHT22;18374;51.136;3.502;2023-08-01T10:09:40;19.60;99.90
31799;DHT22;18374;51.136;3.502;2023-08-01T10:12:09;19.60;99.90
31799;DHT22;18374;51.136;3.502;2023-08-01T10:14:40;19.60;99.90
31799;DHT22;18374;51.136;3.502;2023-08-01T10:17:10;19.70;99.90
31799;DHT22;18374;51.136;3.502;2023-08-01T10:19:39;19.80;99.90
31799;DHT22;18374;51.136;3.502;2023-08-01T10:22:09;19.90;99.90
31799;DHT22;18374;51.136;3.502;2023-08-01T10:24:38;20.00;99.90
31799;DHT22;18374;51.136;3.502;2023-08-01T10:29:42;20.00;99.90
31799;DHT22;18374;51.136;3.502;2023-08-01T10:32:11;19.80;99.90
31799;DHT22;18374;51.136;3.502;2023-08-01T10:34:39;19.60;99.90
31799;DHT22;18374;51.136;3.502;2023-08-01T10:37:06;19.50;99.90
31799;DHT22;18374;51.136;3.502;2023-08-01T10:39:34;19.40;99.90
31799;DHT22;18374;51.136;3.502;2023-08-01T10:42:04;19.50;99.90
31799;DHT22;18374;51.136;3.502;2023-08-01T10:44:33;19.50;99.90
31799;DHT22;18374;51.136;3.502;2023-08-01T10:47:03;19.50;99.90
31799;DHT22;18374;51.136;3.502;2023-08-01T10:49:37;19.60;99.90
31799;DHT22;18374;51.136;3.502;2023-08-01T10:54:43;20.30;99.90
31799;DHT22;18374;51.136;3.502;2023-08-01T10:57:18;20.40;99.90
31799;DHT22;18374;51.136;3.502;2023-08-01T10:59:46;20.40;99.90
31799;DHT22;18374;51.136;3.502;2023-08-01T11:02:23;20.70;99.90
31799;DHT22;18374;51.136;3.502;2023-08-01T11:05:00;20.70;99.90
31799;DHT22;18374;51.136;3.502;2023-08-01T11:07:29;20.80;99.90
31799;DHT22;18374;51.136;3.502;2023-08-01T11:10:11;20.60;99.90
31799;DHT22;18374;51.136;3.502;2023-08-01T11:12:44;20.20;99.90
31799;DHT22;18374;51.136;3.502;2023-08-01T11:15:13;19.80;99.90
31799;DHT22;18374;51.136;3.502;2023-08-01T11:17:46;19.70;99.90
31799;DHT22;18374;51.136;3.502;2023-08-01T11:20:16;19.70;99.90
31799;DHT22;18374;51.136;3.502;2023-08-01T11:22:58;19.40;99.90
31799;DHT22;18374;51.136;3.502;2023-08-01T11:25:38;19.50;99.90
31799;DHT22;18374;51.136;3.502;2023-08-01T11:30:41;19.60;99.90
31799;DHT22;18374;51.136;3.502;2023-08-01T11:33:20;19.70;99.90
31799;DHT22;18374;51.136;3.502;2023-08-01T11:35:53;19.90;99.90
31799;DHT22;18374;51.136;3.502;2023-08-01T11:38:25;20.00;99.90
31799;DHT22;18374;51.136;3.502;2023-08-01T11:40:54;20.10;99.90
31799;DHT22;18374;51.136;3.502;2023-08-01T11:43:21;20.00;99.90
31799;DHT22;18374;51.136;3.502;2023-08-01T11:45:55;19.70;99.90
31799;DHT22;18374;51.136;3.502;2023-08-01T11:48:23;19.60;99.90
31799;DHT22;18374;51.136;3.502;2023-08-01T11:50:59;19.70;99.90
31799;DHT22;18374;51.136;3.502;2023-08-01T11:53:28;20.00;99.90
31799;DHT22;18374;51.136;3.502;2023-08-01T11:55:56;19.90;99.90
31799;DHT22;18374;51.136;3.502;2023-08-01T12:06:15;20.30;99.90
31799;DHT22;18374;51.136;3.502;2023-08-01T12:08:45;20.20;99.90
31799;DHT22;18374;51.136;3.502;2023-08-01T12:11:24;20.20;99.90
31799;DHT22;18374;51.136;3.502;2023-08-01T12:14:08;20.40;99.90
31799;DHT22;18374;51.136;3.502;2023-08-01T12:16:39;20.80;99.90
31799;DHT22;18374;51.136;3.502;2023-08-01T12:19:09;21.10;99.90
31799;DHT22;18374;51.136;3.502;2023-08-01T12:21:37;21.10;99.90
31799;DHT22;18374;51.136;3.502;2023-08-01T12:24:05;20.90;99.90
31799;DHT22;18374;51.136;3.502;2023-08-01T12:26:33;20.50;99.90
31799;DHT22;18374;51.136;3.502;2023-08-01T12:29:01;20.20;99.90
31799;DHT22;18374;51.136;3.502;2023-08-01T12:31:29;20.10;99.90
31799;DHT22;18374;51.136;3.502;2023-08-01T12:33:57;19.90;99.90
31799;DHT22;18374;51.136;3.502;2023-08-01T12:36:25;19.90;99.90
31799;DHT22;18374;51.136;3.502;2023-08-01T12:38:54;19.80;99.90
31799;DHT22;18374;51.136;3.502;2023-08-01T12:41:21;19.90;99.90
31799;DHT22;18374;51.136;3.502;2023-08-01T12:43:50;19.90;99.90
31799;DHT22;18374;51.136;3.502;2023-08-01T12:46:17;19.90;99.90
31799;DHT22;18374;51.136;3.502;2023-08-01T12:48:45;20.10;99.90
31799;DHT22;18374;51.136;3.502;2023-08-01T12:51:13;20.20;99.90
31799;DHT22;18374;51.136;3.502;2023-08-01T12:53:42;20.20;99.90
31799;DHT22;18374;51.136;3.502;2023-08-01T12:56:13;20.10;99.90
31799;DHT22;18374;51.136;3.502;2023-08-01T12:58:40;20.00;99.90
31799;DHT22;18374;51.136;3.502;2023-08-01T13:01:09;19.80;99.90
31799;DHT22;18374;51.136;3.502;2023-08-01T13:03:36;19.80;99.90
31799;DHT22;18374;51.136;3.502;2023-08-01T13:06:04;19.70;99.90
31799;DHT22;18374;51.136;3.502;2023-08-01T13:08:32;19.60;99.90
31799;DHT22;18374;51.136;3.502;2023-08-01T13:11:00;19.60;99.90
31799;DHT22;18374;51.136;3.502;2023-08-01T13:13:28;19.70;99.90
31799;DHT22;18374;51.136;3.502;2023-08-01T13:15:58;19.70;99.90
31799;DHT22;18374;51.136;3.502;2023-08-01T13:18:26;19.70;99.90
31799;DHT22;18374;51.136;3.502;2023-08-01T13:20:56;19.70;99.90
31799;DHT22;18374;51.136;3.502;2023-08-01T13:23:24;19.70;99.90
31799;DHT22;18374;51.136;3.502;2023-08-01T13:25:53;19.60;99.90
31799;DHT22;18374;51.136;3.502;2023-08-01T13:28:21;19.40;99.90
31799;DHT22;18374;51.136;3.502;2023-08-01T13:30:48;19.20;99.90
31799;DHT22;18374;51.136;3.502;2023-08-01T13:33:16;19.00;99.90
31799;DHT22;18374;51.136;3.502;2023-08-01T13:35:44;18.90;99.90
31799;DHT22;18374;51.136;3.502;2023-08-01T13:38:12;18.80;99.90
31799;DHT22;18374;51.136;3.502;2023-08-01T13:40:40;18.70;99.90
31799;DHT22;18374;51.136;3.502;2023-08-01T13:43:08;18.60;99.90
31799;DHT22;18374;51.136;3.502;2023-08-01T13:45:36;18.60;99.90
31799;DHT22;18374;51.136;3.502;2023-08-01T13:48:04;18.70;99.90
31799;DHT22;18374;51.136;3.502;2023-08-01T13:50:31;18.90;99.90
31799;DHT22;18374;51.136;3.502;2023-08-01T13:52:59;19.00;99.90
31799;DHT22;18374;51.136;3.502;2023-08-01T13:55:27;19.10;99.90
31799;DHT22;18374;51.136;3.502;2023-08-01T13:57:55;19.20;99.90
31799;DHT22;18374;51.136;3.502;2023-08-01T14:00:22;19.20;99.90
31799;DHT22;18374;51.136;3.502;2023-08-01T14:02:50;19.20;99.90
31799;DHT22;18374;51.136;3.502;2023-08-01T14:05:19;19.20;99.90
31799;DHT22;18374;51.136;3.502;2023-08-01T14:07:47;19.10;99.90
31799;DHT22;18374;51.136;3.502;2023-08-01T14:10:14;19.00;99.90
31799;DHT22;18374;51.136;3.502;2023-08-01T14:12:42;19.00;99.90
31799;DHT22;18374;51.136;3.502;2023-08-01T14:15:10;18.90;99.90
31799;DHT22;18374;51.136;3.502;2023-08-01T14:17:38;19.00;99.90
31799;DHT22;18374;51.136;3.502;2023-08-01T14:20:07;19.10;99.90
31799;DHT22;18374;51.136;3.502;2023-08-01T14:22:36;19.20;99.90
31799;DHT22;18374;51.136;3.502;2023-08-01T14:25:06;19.40;99.90
31799;DHT22;18374;51.136;3.502;2023-08-01T14:27:34;19.90;99.90
31799;DHT22;18374;51.136;3.502;2023-08-01T14:30:02;20.10;99.90
31799;DHT22;18374;51.136;3.502;2023-08-01T14:32:33;20.20;99.90
31799;DHT22;18374;51.136;3.502;2023-08-01T14:35:00;20.10;99.90
31799;DHT22;18374;51.136;3.502;2023-08-01T14:37:28;19.90;99.90
31799;DHT22;18374;51.136;3.502;2023-08-01T14:39:57;19.80;99.90
31799;DHT22;18374;51.136;3.502;2023-08-01T14:42:25;19.70;99.90
31799;DHT22;18374;51.136;3.502;2023-08-01T14:44:53;19.70;99.90
31799;DHT22;18374;51.136;3.502;2023-08-01T14:47:21;19.50;99.90
31799;DHT22;18374;51.136;3.502;2023-08-01T14:49:49;19.40;99.90
31799;DHT22;18374;51.136;3.502;2023-08-01T14:52:17;19.30;99.90
31799;DHT22;18374;51.136;3.502;2023-08-01T14:54:52;19.20;99.90
31799;DHT22;18374;51.136;3.502;2023-08-01T14:57:19;19.00;99.90
31799;DHT22;18374;51.136;3.502;2023-08-01T14:59:47;18.90;99.90
31799;DHT22;18374;51.136;3.502;2023-08-01T15:02:15;18.80;99.90
31799;DHT22;18374;51.136;3.502;2023-08-01T15:04:43;18.70;99.90
31799;DHT22;18374;51.136;3.502;2023-08-01T15:07:11;18.60;99.90
31799;DHT22;18374;51.136;3.502;2023-08-01T15:09:42;18.70;99.90
31799;DHT22;18374;51.136;3.502;2023-08-01T15:12:11;18.70;99.90
31799;DHT22;18374;51.136;3.502;2023-08-01T15:14:39;18.70;99.90
31799;DHT22;18374;51.136;3.502;2023-08-01T15:17:06;18.70;99.90
31799;DHT22;18374;51.136;3.502;2023-08-01T15:19:35;18.80;99.90
31799;DHT22;18374;51.136;3.502;2023-08-01T15:22:07;18.70;99.90
31799;DHT22;18374;51.136;3.502;2023-08-01T15:24:34;18.80;99.90
31799;DHT22;18374;51.136;3.502;2023-08-01T15:27:02;18.80;99.90
31799;DHT22;18374;51.136;3.502;2023-08-01T15:29:30;18.80;99.90
31799;DHT22;18374;51.136;3.502;2023-08-01T15:31:58;18.90;99.90
31799;DHT22;18374;51.136;3.502;2023-08-01T15:34:25;18.90;99.90
31799;DHT22;18374;51.136;3.502;2023-08-01T15:36:53;18.90;99.90
31799;DHT22;18374;51.136;3.502;2023-08-01T15:39:21;18.90;99.90
31799;DHT22;18374;51.136;3.502;2023-08-01T15:41:49;18.80;99.90
31799;DHT22;18374;51.136;3.502;2023-08-01T15:44:17;18.80;99.90
31799;DHT22;18374;51.136;3.502;2023-08-01T15:46:44;18.80;99.90
31799;DHT22;18374;51.136;3.502;2023-08-01T15:49:12;18.70;99.90
31799;DHT22;18374;51.136;3.502;2023-08-01T15:51:40;18.70;99.90
31799;DHT22;18374;51.136;3.502;2023-08-01T15:54:08;18.80;99.90
31799;DHT22;18374;51.136;3.502;2023-08-01T15:56:35;18.80;99.90
31799;DHT22;18374;51.136;3.502;2023-08-01T15:59:04;18.90;99.90
31799;DHT22;18374;51.136;3.502;2023-08-01T16:01:32;18.90;99.90
31799;DHT22;18374;51.136;3.502;2023-08-01T16:03:59;18.90;99.90